WetterOnline ( https://www.wetteronline.ch )

Wetter aktuell Frankfurt am Main

Aktuelles Wetter: Offenbach (119m)

6-stündlich | Neueste Meldungen
Ortszeit Temperatur Wetter
Fr, 14.05. 8:00 11.6° C bedeckt
Fr, 14.05. 2:00 11.6° C bedeckt
Do, 13.05. 20:00 15.1° C bedeckt
Do, 13.05. 14:00 19.4° C wolkig
Do, 13.05. 8:00 8.7° C fast wolkenlos
Do, 13.05. 2:00 9.6° C bewölkt
Mi, 12.05. 20:00 12.0° C leichter Regen
Mi, 12.05. 14:00 16.1° C bewölkt
Ortszeit Temperatur Wetter
Fr, 14.05. 10:00 13.7° C bedeckt
Fr, 14.05. 9:50 13.7° C bedeckt
Fr, 14.05. 9:40 13.2° C bedeckt
Fr, 14.05. 9:30 12.9° C bedeckt
Fr, 14.05. 9:20 12.9° C bedeckt
Fr, 14.05. 9:10 12.3° C bedeckt
Fr, 14.05. 9:00 12.0° C bedeckt
Fr, 14.05. 8:30 11.6° C bewölkt
Fr, 14.05. 8:00 11.6° C bedeckt
Fr, 14.05. 7:30 10.4° C bedeckt
Fr, 14.05. 7:00 9.5° C bedeckt
Ortszeit Relative Feuchte Sichtweite
Fr, 14.05. 8:00 71% 55 km
Fr, 14.05. 2:00 75% 60 km
Do, 13.05. 20:00 58% 55 km
Do, 13.05. 14:00 43% >70 km
Do, 13.05. 8:00 93% 12 km
Do, 13.05. 2:00 99% 1.4 km
Mi, 12.05. 20:00 91% 4.3 km
Mi, 12.05. 14:00 51% 45 km
Ortszeit Relative Feuchte Sichtweite
Fr, 14.05. 10:00 68% >70 km
Fr, 14.05. 9:50 68% -
Fr, 14.05. 9:40 67% -
Fr, 14.05. 9:30 68% 50 km
Fr, 14.05. 9:20 68% -
Fr, 14.05. 9:10 73% -
Fr, 14.05. 9:00 70% 45 km
Fr, 14.05. 8:30 69% >70 km
Fr, 14.05. 8:00 71% 55 km
Fr, 14.05. 7:30 76% 55 km
Fr, 14.05. 7:00 81% 50 km
Ortszeit Niederschlagsmenge Niederschlagsart
Fr, 14.05. 8:00 0.0 l/m2 in 12 Std. -
Fr, 14.05. 2:00 0.0 l/m2 in 6 Std. -
Do, 13.05. 20:00 0.5 l/m2 in 12 Std. Regen
Do, 13.05. 14:00 0.0 l/m2 in 6 Std. -
Do, 13.05. 8:00 0.4 l/m2 in 12 Std. -
Do, 13.05. 2:00 0.4 l/m2 in 6 Std. Regen
Mi, 12.05. 20:00 1 l/m2 in 12 Std. Regen
Mi, 12.05. 14:00 0.0 l/m2 in 6 Std. -
Ortszeit Niederschlagsmenge Niederschlagsart
Fr, 14.05. 10:00 0.0 l/m2 in 1 Std. -
Fr, 14.05. 9:50 keine Meldung -
Fr, 14.05. 9:40 keine Meldung -
Fr, 14.05. 9:30 0.0 l/m2 in 1 Std. -
Fr, 14.05. 9:20 keine Meldung -
Fr, 14.05. 9:10 keine Meldung -
Fr, 14.05. 9:00 0.0 l/m2 in 1 Std. -
Fr, 14.05. 8:30 0.0 l/m2 in 1 Std. -
Fr, 14.05. 8:00 0.0 l/m2 in 1 Std. -
Fr, 14.05. 7:30 0.0 l/m2 in 1 Std. -
Fr, 14.05. 7:00 0.0 l/m2 in 1 Std. -
Ortszeit Stärke Spitze Richtung
km/h Bft. km/h Grad Sektor
Fr, 14.05. 8:00 11 2 22 240° SW
Fr, 14.05. 2:00 9 2 24 220° SW
Do, 13.05. 20:00 11 2 29 220° SW
Do, 13.05. 14:00 7 2 22 240° SW
Do, 13.05. 8:00 4 1 7 120° SO
Do, 13.05. 2:00 0 0 11 - -
Mi, 12.05. 20:00 9 2 22 280° W
Mi, 12.05. 14:00 6 1 22 20° N
Ortszeit Stärke Spitze Richtung
km/h Bft. km/h Grad Sektor
Fr, 14.05. 10:00 11 2 18 220° SW
Fr, 14.05. 9:50 11 2 - 220° SW
Fr, 14.05. 9:40 11 2 - 200° S
Fr, 14.05. 9:30 11 2 18 210° SW
Fr, 14.05. 9:20 11 2 - 210° SW
Fr, 14.05. 9:10 7 2 - 210° SW
Fr, 14.05. 9:00 7 2 18 230° SW
Fr, 14.05. 8:30 11 2 18 230° SW
Fr, 14.05. 8:00 11 2 22 240° SW
Fr, 14.05. 7:30 7 2 15 230° SW
Fr, 14.05. 7:00 7 2 18 230° SW
Ortszeit Untergrenze Bedeckung Gattung
total tief tief mittel hoch
Fr, 14.05. 8:00 3900 m 8/8 8/8 - - -
Fr, 14.05. 2:00 1800 m 8/8 8/8 - - -
Do, 13.05. 20:00 5400 m 8/8 8/8 - - -
Do, 13.05. 14:00 1500 m 5/8 5/8 - - -
Do, 13.05. 8:00 30 m 1/8 1/8 - - -
Do, 13.05. 2:00 1800 m 8/8 7/8 - - -
Mi, 12.05. 20:00 960 m 8/8 8/8 - - -
Mi, 12.05. 14:00 1500 m 8/8 6/8 - - -
Ortszeit Bedeckungsgrad in Achtel und Wolkenuntergrenze
Fr, 14.05. 10:00 8(2100m)
Fr, 14.05. 9:50 8(2100m)
Fr, 14.05. 9:40 8(2100m) 8(4200m)
Fr, 14.05. 9:30 8(2100m) 8(4200m)
Fr, 14.05. 9:20 8(2100m) 8(4200m)
Fr, 14.05. 9:10 8(1800m) 8(4200m)
Fr, 14.05. 9:00 8(1800m)
Fr, 14.05. 8:30 7(1800m) 8(3900m)
Fr, 14.05. 8:00 8(3900m) 8(3900m)
Fr, 14.05. 7:30 8(3900m) 8(5700m)
Fr, 14.05. 7:00 8(3900m) 8(5700m)
Ortszeit Luftdruck NN (hPa) Tendenz (hPa in 3 Std.)
Fr, 14.05. 8:00 1008 + 0,6
Fr, 14.05. 2:00 1008 0,0
Do, 13.05. 20:00 1006 + 0,4
Do, 13.05. 14:00 1006 - 1,4
Do, 13.05. 8:00 1009 - 0,5
Do, 13.05. 2:00 1010 - 0,8
Mi, 12.05. 20:00 1011 + 0,1
Mi, 12.05. 14:00 1011 - 0,6
Ortszeit Luftdruck NN (hPa) Tendenz (hPa in 3 Std.)
Fr, 14.05. 10:00 1009 + 0,9
Fr, 14.05. 9:50 1009 keine Meldung
Fr, 14.05. 9:40 1009 keine Meldung
Fr, 14.05. 9:30 1009 + 1,0
Fr, 14.05. 9:20 1009 keine Meldung
Fr, 14.05. 9:10 1009 keine Meldung
Fr, 14.05. 9:00 1009 + 0,9
Fr, 14.05. 8:30 1008 + 0,8
Fr, 14.05. 8:00 1008 + 0,6
Fr, 14.05. 7:30 1008 + 0,5
Fr, 14.05. 7:00 1008 + 0,3
Ortszeit Schneehöhe (cm)
Fr, 14.05. 8:00 0
Fr, 14.05. 2:00 0
Do, 13.05. 20:00 0
Do, 13.05. 14:00 0
Do, 13.05. 8:00 0
Do, 13.05. 2:00 0
Mi, 12.05. 20:00 0
Mi, 12.05. 14:00 0
Ortszeit Schneehöhe (cm)
Fr, 14.05. 10:00 0
Fr, 14.05. 9:50 0
Fr, 14.05. 9:40 0
Fr, 14.05. 9:30 0
Fr, 14.05. 9:20 0
Fr, 14.05. 9:10 0
Fr, 14.05. 9:00 0
Fr, 14.05. 8:30 0
Fr, 14.05. 8:00 0
Fr, 14.05. 7:30 0
Fr, 14.05. 7:00 0
Link zu dieser Seite / Seite empfehlen

Das Wetter in ...